Aspen Park, Colorado
Current Conditions -  °F | °C
As of 10:53 PM on Wednesday 22 Oct 2014 (Local Time) from KAPA Reporting Station
Broken Clouds Broken Clouds  
Wind Chill: 46°   Ceiling: 14000
Heat Index: 48°   Visibility: 10mi
Dew Point: 41°   Wind: 5mph
Humidity: 77%   Direction: 130°SE
Pressure: 30.17"   Gusts: NA
Location:  39.4975°N, 105.289°W
Report Text: KAPA 230453Z 13004KT 10SM BKN140 09/05 A3017 RMK AO2 SLP180 T00890050
Loading
Personal Weather Stations






























Interactive Weather Map New forecast layout! Learn more

10-Day Weather Forecast

Advertisements
Track Severe Weather on mobile